Star Planet — V2OE9 — position and weather

sailwx.info

Track history (hours):
 
Tides and Currents Weather Stations Pressure Air Temp Water Temp Dewpoint Dewpoint Depression Visibility Wind Speed Wind Dir Waves Ship Positions

Star Planet

Last reported at 2018-Jun-18 03:30 UTC. Time now 2018-Jun-18 03:29 UTC.
Position N 34°31' E 134°42'.

Length 132 m; draft 5.9 m.

Type: Cargo ship. MMSI: 304427000.

Date/timePositionNaut miles runAvg speedWind from/ knotsBaromVisibWave heightAir tempDewpointWater temp
2018-Jun-18 03:30N 34°31' E 134°42'713.9
2018-Jun-18 03:00N 34°28' E 134°34'714.4
2018-Jun-18 02:30N 34°25' E 134°26'  
2018-Jun-15 19:16N 37°52' E 121°32'515.1
2018-Jun-15 18:57N 37°53' E 121°26'914.6
2018-Jun-15 18:19N 37°55' E 121°15'414.4
2018-Jun-15 18:01N 37°56' E 121°10'714.5
2018-Jun-15 17:30N 37°57' E 121°01'714.6
2018-Jun-15 17:00N 37°59' E 120°52'714.7
2018-Jun-15 16:31N 38°00' E 120°42'714.5
2018-Jun-15 16:01N 38°01' E 120°33'714.4
2018-Jun-15 15:31N 38°01' E 120°24'814.4
2018-Jun-15 14:59N 37°59' E 120°15'714.3
2018-Jun-15 14:28N 37°56' E 120°07'58 4.1
2018-Jun-15 00:12N 37°16' E 119°13'414.1
2018-Jun-14 23:54N 37°19' E 119°16'  
2018-Jun-10 08:23N 38°44' E 120°25'1614.8
2018-Jun-10 07:18N 38°39' E 120°45'1715.1
2018-Jun-10 06:09N 38°32' E 121°05'  
Track history (hours):
 
Tides and Currents Weather Stations Pressure Air Temp Water Temp Dewpoint Dewpoint Depression Visibility Wind Speed Wind Dir Waves Ship Positions

Star Planet

Last reported at 2018-Jun-18 03:30 UTC. Time now 2018-Jun-18 03:29 UTC.
Position N 34°31' E 134°42'.

Length 132 m; draft 5.9 m.

Type: Cargo ship. MMSI: 304427000.

Date/timePositionNaut miles runAvg speedWind from/ knotsBaromVisibWave heightAir tempDewpointWater temp
2018-Jun-18 03:30N 34°31' E 134°42'713.9
2018-Jun-18 03:00N 34°28' E 134°34'714.4
2018-Jun-18 02:30N 34°25' E 134°26'  
2018-Jun-15 19:16N 37°52' E 121°32'515.1
2018-Jun-15 18:57N 37°53' E 121°26'914.6
2018-Jun-15 18:19N 37°55' E 121°15'414.4
2018-Jun-15 18:01N 37°56' E 121°10'714.5
2018-Jun-15 17:30N 37°57' E 121°01'714.6
2018-Jun-15 17:00N 37°59' E 120°52'714.7
2018-Jun-15 16:31N 38°00' E 120°42'714.5
2018-Jun-15 16:01N 38°01' E 120°33'714.4
2018-Jun-15 15:31N 38°01' E 120°24'814.4
2018-Jun-15 14:59N 37°59' E 120°15'714.3
2018-Jun-15 14:28N 37°56' E 120°07'58 4.1
2018-Jun-15 00:12N 37°16' E 119°13'414.1
2018-Jun-14 23:54N 37°19' E 119°16'  
2018-Jun-10 08:23N 38°44' E 120°25'1614.8
2018-Jun-10 07:18N 38°39' E 120°45'1715.1
2018-Jun-10 06:09N 38°32' E 121°05'  

Dump ship's entire track history